createdAt,value
2019-03-17T00:00:55.822Z,2.23
2019-03-17T00:06:01.308Z,3.63
2019-03-17T00:11:06.816Z,2.87
2019-03-17T00:16:12.281Z,2.63
2019-03-17T00:21:17.800Z,3.30
2019-03-17T00:26:23.300Z,2.33
2019-03-17T00:31:28.931Z,2.73
2019-03-17T00:36:34.415Z,3.53
2019-03-17T00:41:39.881Z,2.10
2019-03-17T00:46:45.371Z,4.37
2019-03-17T00:51:50.855Z,2.13
2019-03-17T00:56:56.335Z,3.00
2019-03-17T01:02:01.794Z,3.57
2019-03-17T01:07:07.352Z,2.77
2019-03-17T01:12:12.919Z,4.47
2019-03-17T01:17:18.406Z,3.40
2019-03-17T01:22:23.924Z,6.70
2019-03-17T01:27:29.370Z,3.23
2019-03-17T01:32:34.900Z,4.83
2019-03-17T01:37:40.388Z,4.60
2019-03-17T01:42:45.930Z,4.83
2019-03-17T01:47:51.491Z,5.93
2019-03-17T01:52:57.052Z,3.53
2019-03-17T01:58:02.601Z,6.87
2019-03-17T02:03:08.155Z,4.97
2019-03-17T02:08:13.652Z,3.87
2019-03-17T02:13:19.212Z,7.70
2019-03-17T02:18:24.771Z,4.53
2019-03-17T02:23:30.267Z,9.17
2019-03-17T02:28:35.744Z,5.43
2019-03-17T02:33:41.234Z,5.27
2019-03-17T02:38:46.722Z,5.73
2019-03-17T02:43:52.282Z,5.73
2019-03-17T02:48:57.898Z,3.73
2019-03-17T02:54:03.580Z,8.50
2019-03-17T02:59:09.130Z,6.67
2019-03-17T03:04:14.641Z,4.77
2019-03-17T03:09:20.158Z,6.60
2019-03-17T03:14:25.777Z,5.03
2019-03-17T03:19:31.249Z,4.77
2019-03-17T03:24:36.736Z,6.47
2019-03-17T03:29:42.303Z,5.80
2019-03-17T03:34:47.808Z,6.27
2019-03-17T03:39:53.326Z,7.83
2019-03-17T03:44:58.843Z,10.07
2019-03-17T03:50:04.484Z,13.50
2019-03-17T03:55:09.962Z,11.00
2019-03-17T04:00:15.525Z,13.50
2019-03-17T04:05:21.051Z,11.17
2019-03-17T04:10:26.494Z,7.03
2019-03-17T04:15:31.967Z,7.60
2019-03-17T04:20:37.529Z,8.10
2019-03-17T04:25:43.014Z,5.67
2019-03-17T04:30:48.483Z,8.07
2019-03-17T04:35:54.092Z,12.60
2019-03-17T04:40:59.694Z,8.43
2019-03-17T04:46:05.225Z,7.63
2019-03-17T04:51:10.729Z,9.30
2019-03-17T04:56:16.208Z,10.17
2019-03-17T05:01:21.733Z,15.70
2019-03-17T05:06:27.237Z,16.93
2019-03-17T05:11:32.727Z,7.67
2019-03-17T05:16:38.211Z,11.27
2019-03-17T05:21:43.699Z,11.70
2019-03-17T05:26:49.186Z,12.37
2019-03-17T05:31:54.743Z,9.23
2019-03-17T05:37:06.287Z,5.13
2019-03-17T05:42:07.506Z,7.03
2019-03-17T05:47:12.978Z,7.70
2019-03-17T05:52:18.447Z,4.13
2019-03-17T05:57:24.005Z,4.37
2019-03-17T06:02:29.528Z,5.57
2019-03-17T06:07:35.063Z,9.87
2019-03-17T06:12:40.598Z,5.30
2019-03-17T06:17:46.178Z,7.23
2019-03-17T06:22:51.657Z,6.57
2019-03-17T06:27:57.217Z,6.53
2019-03-17T06:33:02.860Z,5.40
2019-03-17T06:38:08.444Z,7.03
2019-03-17T06:43:14.061Z,6.20
2019-03-17T06:48:19.735Z,6.40
2019-03-17T06:53:25.337Z,4.03
2019-03-17T06:58:30.867Z,7.47
2019-03-17T07:03:36.373Z,5.73
2019-03-17T07:08:41.885Z,6.13
2019-03-17T07:13:47.416Z,4.97
2019-03-17T07:18:53.224Z,4.23
2019-03-17T07:23:58.723Z,5.37
2019-03-17T07:29:04.231Z,3.33
2019-03-17T07:34:09.732Z,5.00
2019-03-17T07:39:15.214Z,2.73
2019-03-17T07:44:20.823Z,1.67
2019-03-17T07:49:26.407Z,1.43
2019-03-17T07:54:34.864Z,2.03
2019-03-17T07:59:39.129Z,1.33
2019-03-17T08:04:46.182Z,1.10
2019-03-17T08:09:51.859Z,2.10
2019-03-17T08:14:57.908Z,1.30
2019-03-17T08:20:03.503Z,1.57
2019-03-17T08:25:09.027Z,1.20
2019-03-17T08:30:14.496Z,5.37
2019-03-17T08:35:19.976Z,3.20
2019-03-17T08:40:25.594Z,1.43
2019-03-17T08:45:31.107Z,1.33
2019-03-17T08:50:36.998Z,1.17
2019-03-17T08:55:42.503Z,0.90
2019-03-17T09:00:48.034Z,1.50
2019-03-17T09:05:53.721Z,1.10
2019-03-17T09:10:59.258Z,1.77
2019-03-17T09:16:04.835Z,1.40
2019-03-17T09:21:10.364Z,1.73
2019-03-17T09:26:15.850Z,2.57
2019-03-17T09:31:21.334Z,2.43
2019-03-17T09:36:26.959Z,3.90
2019-03-17T09:41:32.434Z,2.87
2019-03-17T09:46:37.978Z,2.20
2019-03-17T09:51:43.497Z,3.00
2019-03-17T09:56:49.145Z,2.57
2019-03-17T10:01:54.697Z,3.37
2019-03-17T10:07:00.297Z,2.43
2019-03-17T10:12:05.993Z,1.37
2019-03-17T10:17:11.521Z,3.30
2019-03-17T10:22:17.169Z,3.37
2019-03-17T10:27:24.499Z,2.03
2019-03-17T10:32:37.393Z,3.20
2019-03-17T10:37:44.011Z,3.07
2019-03-17T10:42:49.529Z,3.23
2019-03-17T10:47:55.061Z,2.57
2019-03-17T10:53:00.590Z,2.87
2019-03-17T10:58:09.514Z,3.03
2019-03-17T11:03:15.007Z,4.43
2019-03-17T11:08:20.473Z,4.30
2019-03-17T11:13:26.310Z,4.27
2019-03-17T11:18:31.786Z,2.97
2019-03-17T11:23:37.381Z,4.03
2019-03-17T11:28:42.999Z,4.23
2019-03-17T11:33:48.828Z,2.27
2019-03-17T11:38:54.332Z,3.00
2019-03-17T11:43:59.828Z,4.70
2019-03-17T11:49:05.393Z,3.87
2019-03-17T11:54:10.910Z,4.63
2019-03-17T11:59:16.451Z,3.93
2019-03-17T12:04:22.200Z,3.33
2019-03-17T12:09:29.310Z,3.43
2019-03-17T12:14:34.731Z,4.70
2019-03-17T12:19:40.288Z,4.97
2019-03-17T12:24:45.922Z,5.27
2019-03-17T12:29:51.423Z,3.13
2019-03-17T12:34:57.098Z,5.20
2019-03-17T12:40:03.392Z,3.87
2019-03-17T12:45:09.356Z,2.07
2019-03-17T12:50:15.125Z,2.63
2019-03-17T12:55:20.590Z,1.80
2019-03-17T13:00:26.148Z,2.97
2019-03-17T13:05:31.726Z,4.30
2019-03-17T13:10:37.253Z,2.37
2019-03-17T13:15:42.718Z,2.77
2019-03-17T13:20:48.234Z,1.57
2019-03-17T13:25:53.751Z,2.27
2019-03-17T13:30:59.365Z,1.30
2019-03-17T13:36:04.882Z,2.90
2019-03-17T13:41:10.443Z,3.00
2019-03-17T13:46:15.988Z,2.27
2019-03-17T13:51:21.492Z,1.77
2019-03-17T13:56:27.073Z,2.13
2019-03-17T14:01:32.615Z,1.87
2019-03-17T14:06:38.203Z,1.70
2019-03-17T14:11:43.731Z,1.10
2019-03-17T14:16:49.322Z,1.87
2019-03-17T14:21:54.815Z,1.40
2019-03-17T14:27:00.347Z,1.73
2019-03-17T14:32:05.961Z,2.00
2019-03-17T14:37:11.535Z,1.50
2019-03-17T14:42:17.055Z,1.50
2019-03-17T14:47:22.578Z,1.97
2019-03-17T14:52:28.098Z,1.57
2019-03-17T14:57:33.709Z,1.17
2019-03-17T15:02:39.228Z,2.70
2019-03-17T15:07:47.105Z,1.50
2019-03-17T15:12:52.593Z,3.33
2019-03-17T15:17:58.151Z,2.10
2019-03-17T15:23:03.783Z,1.93
2019-03-17T15:28:09.431Z,2.20
2019-03-17T15:33:14.871Z,1.40
2019-03-17T15:38:20.480Z,1.27
2019-03-17T15:43:26.039Z,3.93
2019-03-17T15:48:31.788Z,2.80
2019-03-17T15:53:37.305Z,1.97
2019-03-17T15:58:42.821Z,1.47
2019-03-17T16:03:48.718Z,2.87
2019-03-17T16:08:54.240Z,2.50
2019-03-17T16:13:59.725Z,1.83
2019-03-17T16:19:05.291Z,1.57
2019-03-17T16:24:10.924Z,1.30
2019-03-17T16:29:16.490Z,3.23
2019-03-17T16:34:22.017Z,2.63
2019-03-17T16:39:27.615Z,3.03
2019-03-17T16:44:33.109Z,1.40
2019-03-17T16:49:38.849Z,1.80
2019-03-17T16:54:44.358Z,1.30
2019-03-17T16:59:49.866Z,4.87
2019-03-17T17:04:55.443Z,3.67
2019-03-17T17:10:00.919Z,1.93
2019-03-17T17:15:10.506Z,1.93
2019-03-17T17:20:18.816Z,4.70
2019-03-17T17:25:24.346Z,1.37
2019-03-17T17:30:30.015Z,2.30
2019-03-17T17:35:36.534Z,3.27
2019-03-17T17:40:42.078Z,1.67
2019-03-17T17:45:47.613Z,3.33
2019-03-17T17:50:53.247Z,1.40
2019-03-17T17:55:58.861Z,1.50
2019-03-17T18:01:04.474Z,2.07
2019-03-17T18:06:09.953Z,3.40
2019-03-17T18:11:15.493Z,2.33
2019-03-17T18:16:20.968Z,2.10
2019-03-17T18:21:26.490Z,2.33
2019-03-17T18:26:32.026Z,2.20
2019-03-17T18:31:37.535Z,3.87
2019-03-17T18:36:43.058Z,1.63
2019-03-17T18:41:48.596Z,2.03
2019-03-17T18:46:54.149Z,2.00
2019-03-17T18:51:59.672Z,1.73
2019-03-17T18:57:05.124Z,1.40
2019-03-17T19:02:10.601Z,2.30
2019-03-17T19:07:16.190Z,2.07
2019-03-17T19:12:21.644Z,3.03
2019-03-17T19:17:27.123Z,3.70
2019-03-17T19:22:36.315Z,2.30
2019-03-17T19:27:41.962Z,2.17
2019-03-17T19:32:47.459Z,4.27
2019-03-17T19:37:53.036Z,2.00
2019-03-17T19:42:59.835Z,3.33
2019-03-17T19:48:07.110Z,2.63
2019-03-17T19:53:14.681Z,2.23
2019-03-17T19:58:20.182Z,2.13
2019-03-17T20:03:25.660Z,1.80
2019-03-17T20:08:31.352Z,4.47
2019-03-17T20:13:36.860Z,3.23
2019-03-17T20:18:42.313Z,4.03
2019-03-17T20:23:47.839Z,2.00
2019-03-17T20:28:53.347Z,2.73
2019-03-17T20:33:58.987Z,2.00
2019-03-17T20:39:05.757Z,2.47
2019-03-17T20:44:11.353Z,2.80
2019-03-17T20:49:17.056Z,3.17
2019-03-17T20:54:22.617Z,2.43
2019-03-17T20:59:28.164Z,2.77
2019-03-17T21:04:33.783Z,3.03
2019-03-17T21:09:39.280Z,3.30
2019-03-17T21:14:44.783Z,2.80
2019-03-17T21:19:50.287Z,3.60
2019-03-17T21:24:55.759Z,2.40
2019-03-17T21:30:01.233Z,2.30
2019-03-17T21:35:06.863Z,4.00
2019-03-17T21:40:12.441Z,2.23
2019-03-17T21:45:17.983Z,3.40
2019-03-17T21:50:23.472Z,2.47
2019-03-17T21:55:31.105Z,2.73
2019-03-17T22:00:36.626Z,2.23
2019-03-17T22:05:42.089Z,4.27
2019-03-17T22:10:48.200Z,5.87
2019-03-17T22:15:53.741Z,4.50
2019-03-17T22:20:59.322Z,4.50
2019-03-17T22:26:05.278Z,1.87
2019-03-17T22:31:10.863Z,2.93
2019-03-17T22:36:16.378Z,3.13
2019-03-17T22:41:21.841Z,2.93
2019-03-17T22:46:27.355Z,4.03
2019-03-17T22:51:32.903Z,5.57
2019-03-17T22:56:38.502Z,6.37
2019-03-17T23:01:44.020Z,4.37
2019-03-17T23:06:49.598Z,4.57
2019-03-17T23:11:55.077Z,8.07
2019-03-17T23:17:00.634Z,7.87
2019-03-17T23:22:06.115Z,6.73
2019-03-17T23:27:11.656Z,6.60
2019-03-17T23:32:17.177Z,3.80
2019-03-17T23:37:22.708Z,4.23
2019-03-17T23:42:28.201Z,3.63
2019-03-17T23:47:33.767Z,7.93
2019-03-17T23:52:39.224Z,5.00
2019-03-17T23:57:47.052Z,4.07
